« ブルーインパルス前日予行 小松飛行場 2018/9/16 sun | トップページ | ’18航空祭inKOMATSU【フライト編】 小松飛行場 2018/9/17 mon »

2018/09/18

’18航空祭inKOMATSU【B.I.編】 小松飛行場 2018/9/17 mon

昨年は台風で中止だった小松航空祭。今年は、元ドルフィンライダーの門間空将補が基地司令となり2年ぶりの開催です。朝から安定しない天候で、雨こそ落ちませんでしたが曇天の下、基本2区分で途中変更ありの3区分の変則フライトで実施されました。

RJNK 170300Z 28010KT 9999 FEW015 BKN100 BKN250 26/21 Q1014

20180917_rjnk_bi00

花電車のイラストがどれも秀作でお気に入りです。

20180917_rjnk_bi01

13時前にタクシーアウト

20180917_rjnk_bi02t265690

風は西風、ちょっと強め。ミッションGO!

20180917_rjnk_bi03t065790

RJNK 170400Z 28010KT 9999 FEW015 BKN110 BKN250 25/20 Q1014

20180917_rjnk_bi04t265690

ランナップポジションへ

20180917_rjnk_bi05

スモークッ

20180917_rjnk_bi06

離陸は、インディビジュアル・ノーマルテイクオフ 今までにない変わったテイクオフです。

20180917_rjnk_bi07

ローアングル・キューバン&ロールオン・テイクオフ きゃー、切れた

20180917_rjnk_bi08

よって、いつものダーティーターンはありません

20180917_rjnk_bi09

ファン・ブレイク

20180917_rjnk_bi10

フォー・ポイント・ロール

20180917_rjnk_bi11

20180917_rjnk_bi12

20180917_rjnk_bi13

チェンジ・オーバー・ターン

20180917_rjnk_bi14

20180917_rjnk_bi15

インバーテッド&コンテュニアス・ロール

20180917_rjnk_bi16

20180917_rjnk_bi17

20180917_rjnk_bi18

サンライズ

20180917_rjnk_bi19

バーティカル・クライム・ロール

20180917_rjnk_bi20

スロー・ロール

20180917_rjnk_bi21

20180917_rjnk_bi22

20180917_rjnk_bi23

チェンジ・オーバー・ループ

20180917_rjnk_bi24

20180917_rjnk_bi25

バック・トゥ・バック

20180917_rjnk_bi26

20180917_rjnk_bi27

20180917_rjnk_bi28

レター・エイト

20180917_rjnk_bi29

オポジット・コンティニュアス・ロール 外れた・・

20180917_rjnk_bi30

20180917_rjnk_bi31

20180917_rjnk_bi32

フォー・シップ・インバート

20180917_rjnk_bi33

20180917_rjnk_bi34

スラント・キューピッド 見えるよ ね

20180917_rjnk_bi35

20180917_rjnk_bi36

ライン・アブレスト・ロール

20180917_rjnk_bi37

20180917_rjnk_bi38

スリー・シックスティー&ループ

20180917_rjnk_bi39

20180917_rjnk_bi40

20180917_rjnk_bi41

ワイド・トゥ・デルタ・ループ

20180917_rjnk_bi42

20180917_rjnk_bi43

20180917_rjnk_bi44

デルタ・ロール

20180917_rjnk_bi45

フェニックス・ローパス

20180917_rjnk_bi46

ここから3区分

20180917_rjnk_bi47

ボントン・ロール

20180917_rjnk_bi48

20180917_rjnk_bi49

20180917_rjnk_bi50

サクラ

20180917_rjnk_bi51

20180917_rjnk_bi52

20180917_rjnk_bi53

20180917_rjnk_bi54

タック・クロスI

20180917_rjnk_bi55

20180917_rjnk_bi56

ローリング・コンバット・ピッチ

20180917_rjnk_bi57

20180917_rjnk_bi58

コーク・スクリュー

20180917_rjnk_bi59

オン・ファイナル

20180917_rjnk_bi60t265690

#1 26-5690 T-4 11SQ

20180917_rjnk_bi61t065787

#2 06-5787 T-4 11SQ

20180917_rjnk_bi62t465730

#3 46-5730 T-4 11SQ

20180917_rjnk_bi63t465731

#4 46-5731 T-4 11SQ

20180917_rjnk_bi64t065790

#5 06-5790 T-4 11SQ

20180917_rjnk_bi65t065790

#6 16-5666 T-4 11SQ

20180917_rjnk_bi66t265692

#7 26-5692 T-4 11SQ

変わった課目構成で、楽しめました。機敏な課目変更が編隊長の持ち味でしょうかね。

|

« ブルーインパルス前日予行 小松飛行場 2018/9/16 sun | トップページ | ’18航空祭inKOMATSU【フライト編】 小松飛行場 2018/9/17 mon »

小松飛行場」カテゴリの記事

BI」カテゴリの記事

コメント

コメントを書く



(ウェブ上には掲載しません)


コメントは記事投稿者が公開するまで表示されません。



トラックバック


この記事へのトラックバック一覧です: ’18航空祭inKOMATSU【B.I.編】 小松飛行場 2018/9/17 mon:

« ブルーインパルス前日予行 小松飛行場 2018/9/16 sun | トップページ | ’18航空祭inKOMATSU【フライト編】 小松飛行場 2018/9/17 mon »